sensor_id;sensor_type;location;lat;lon;timestamp;pressure;altitude;pressure_sealevel;temperature;humidity
68107;BME280;54892;47.488;19.026;2022-11-20T00:01:13;99720.91;;;1.90;81.05
68107;BME280;54892;47.488;19.026;2022-11-20T00:04:17;99718.28;;;1.97;80.87
68107;BME280;54892;47.488;19.026;2022-11-20T00:07:20;99718.31;;;1.90;80.92
68107;BME280;54892;47.488;19.026;2022-11-20T00:10:23;99709.91;;;1.88;80.87
68107;BME280;54892;47.488;19.026;2022-11-20T00:13:27;99710.66;;;2.02;80.59
68107;BME280;54892;47.488;19.026;2022-11-20T00:16:32;99711.09;;;1.92;80.42
68107;BME280;54892;47.488;19.026;2022-11-20T00:19:36;99715.12;;;1.81;80.56
68107;BME280;54892;47.488;19.026;2022-11-20T00:22:39;99711.13;;;1.79;80.29
68107;BME280;54892;47.488;19.026;2022-11-20T00:25:42;99717.97;;;1.66;81.22
68107;BME280;54892;47.488;19.026;2022-11-20T00:28:50;99724.56;;;1.62;80.86
68107;BME280;54892;47.488;19.026;2022-11-20T00:31:54;99720.38;;;1.48;81.22
68107;BME280;54892;47.488;19.026;2022-11-20T00:34:57;99722.59;;;1.51;80.93
68107;BME280;54892;47.488;19.026;2022-11-20T00:38:01;99731.78;;;1.47;81.14
68107;BME280;54892;47.488;19.026;2022-11-20T00:41:05;99747.78;;;1.64;80.24
68107;BME280;54892;47.488;19.026;2022-11-20T00:44:10;99750.37;;;1.57;80.48
68107;BME280;54892;47.488;19.026;2022-11-20T00:47:14;99743.00;;;1.54;81.23
68107;BME280;54892;47.488;19.026;2022-11-20T00:50:17;99731.19;;;1.45;81.21
68107;BME280;54892;47.488;19.026;2022-11-20T00:53:20;99726.78;;;1.52;81.22
68107;BME280;54892;47.488;19.026;2022-11-20T00:56:24;99727.97;;;1.56;81.12
68107;BME280;54892;47.488;19.026;2022-11-20T00:59:28;99713.97;;;1.50;81.08
68107;BME280;54892;47.488;19.026;2022-11-20T01:02:32;99721.97;;;1.62;81.06
68107;BME280;54892;47.488;19.026;2022-11-20T01:05:35;99714.75;;;1.64;80.95
68107;BME280;54892;47.488;19.026;2022-11-20T01:08:39;99717.38;;;1.58;81.08
68107;BME280;54892;47.488;19.026;2022-11-20T01:11:43;99724.78;;;1.54;81.65
68107;BME280;54892;47.488;19.026;2022-11-20T01:14:48;99714.75;;;1.71;81.32
68107;BME280;54892;47.488;19.026;2022-11-20T01:17:51;99726.78;;;1.65;81.62
68107;BME280;54892;47.488;19.026;2022-11-20T01:20:54;99730.34;;;1.78;81.67
68107;BME280;54892;47.488;19.026;2022-11-20T01:23:57;99727.53;;;1.73;82.05
68107;BME280;54892;47.488;19.026;2022-11-20T01:27:01;99724.38;;;1.57;83.12
68107;BME280;54892;47.488;19.026;2022-11-20T01:30:07;99725.56;;;1.61;83.51
68107;BME280;54892;47.488;19.026;2022-11-20T01:33:09;99723.97;;;1.67;83.47
68107;BME280;54892;47.488;19.026;2022-11-20T01:36:14;99716.75;;;1.62;84.05
68107;BME280;54892;47.488;19.026;2022-11-20T01:39:19;99717.38;;;1.58;84.12
68107;BME280;54892;47.488;19.026;2022-11-20T01:42:23;99698.16;;;1.59;84.33
68107;BME280;54892;47.488;19.026;2022-11-20T01:46:06;99703.37;;;1.59;84.64
68107;BME280;54892;47.488;19.026;2022-11-20T01:49:17;99696.00;;;1.42;85.65
68107;BME280;54892;47.488;19.026;2022-11-20T01:52:24;99708.38;;;1.47;85.59
68107;BME280;54892;47.488;19.026;2022-11-20T01:55:32;99696.75;;;1.49;85.87
68107;BME280;54892;47.488;19.026;2022-11-20T01:58:39;99690.75;;;1.56;85.84
68107;BME280;54892;47.488;19.026;2022-11-20T02:01:45;99687.78;;;1.52;85.96
68107;BME280;54892;47.488;19.026;2022-11-20T02:04:50;99693.16;;;1.57;86.01
68107;BME280;54892;47.488;19.026;2022-11-20T02:07:56;99691.38;;;1.51;86.26
68107;BME280;54892;47.488;19.026;2022-11-20T02:11:00;99693.97;;;1.51;86.47
68107;BME280;54892;47.488;19.026;2022-11-20T02:14:04;99695.75;;;1.57;86.06
68107;BME280;54892;47.488;19.026;2022-11-20T02:17:08;99707.19;;;1.63;85.99
68107;BME280;54892;47.488;19.026;2022-11-20T02:20:11;99698.34;;;1.57;86.40
68107;BME280;54892;47.488;19.026;2022-11-20T02:23:19;99692.38;;;1.57;86.51
68107;BME280;54892;47.488;19.026;2022-11-20T02:26:28;99696.78;;;1.63;86.49
68107;BME280;54892;47.488;19.026;2022-11-20T02:29:40;99703.97;;;1.67;86.28
68107;BME280;54892;47.488;19.026;2022-11-20T02:32:43;99706.97;;;1.58;86.69
68107;BME280;54892;47.488;19.026;2022-11-20T02:35:47;99682.72;;;1.64;86.50
68107;BME280;54892;47.488;19.026;2022-11-20T02:38:50;99680.13;;;1.64;86.33
68107;BME280;54892;47.488;19.026;2022-11-20T02:41:55;99681.94;;;1.70;85.84
68107;BME280;54892;47.488;19.026;2022-11-20T02:44:59;99683.91;;;1.75;85.88
68107;BME280;54892;47.488;19.026;2022-11-20T02:48:03;99686.91;;;1.85;84.66
68107;BME280;54892;47.488;19.026;2022-11-20T02:51:06;99690.13;;;1.74;85.32
68107;BME280;54892;47.488;19.026;2022-11-20T02:54:10;99681.94;;;1.70;85.74
68107;BME280;54892;47.488;19.026;2022-11-20T02:57:14;99684.50;;;1.77;85.53
68107;BME280;54892;47.488;19.026;2022-11-20T03:00:18;99680.53;;;1.74;85.72
68107;BME280;54892;47.488;19.026;2022-11-20T03:03:21;99675.91;;;1.76;85.97
68107;BME280;54892;47.488;19.026;2022-11-20T03:06:24;99668.88;;;1.83;85.35
68107;BME280;54892;47.488;19.026;2022-11-20T03:09:27;99663.50;;;1.72;85.99
68107;BME280;54892;47.488;19.026;2022-11-20T03:12:32;99669.72;;;1.77;85.86
68107;BME280;54892;47.488;19.026;2022-11-20T03:15:36;99661.72;;;1.72;85.83
68107;BME280;54892;47.488;19.026;2022-11-20T03:18:39;99653.47;;;1.82;85.67
68107;BME280;54892;47.488;19.026;2022-11-20T03:21:42;99663.31;;;1.73;86.32
68107;BME280;54892;47.488;19.026;2022-11-20T03:24:46;99678.31;;;1.78;86.30
68107;BME280;54892;47.488;19.026;2022-11-20T03:27:52;99689.91;;;1.82;85.74
68107;BME280;54892;47.488;19.026;2022-11-20T03:30:55;99696.31;;;1.86;85.80
68107;BME280;54892;47.488;19.026;2022-11-20T03:33:58;99698.69;;;1.88;85.45
68107;BME280;54892;47.488;19.026;2022-11-20T03:37:02;99693.47;;;1.94;85.19
68107;BME280;54892;47.488;19.026;2022-11-20T03:40:06;99673.69;;;1.87;85.25
68107;BME280;54892;47.488;19.026;2022-11-20T03:43:11;99670.44;;;1.98;85.07
68107;BME280;54892;47.488;19.026;2022-11-20T03:46:14;99672.25;;;1.97;84.93
68107;BME280;54892;47.488;19.026;2022-11-20T03:49:18;99666.84;;;1.92;85.32
68107;BME280;54892;47.488;19.026;2022-11-20T03:52:22;99672.25;;;1.97;84.64
68107;BME280;54892;47.488;19.026;2022-11-20T03:55:25;99673.44;;;2.02;84.42
68107;BME280;54892;47.488;19.026;2022-11-20T03:58:29;99667.63;;;2.00;84.39
68107;BME280;54892;47.488;19.026;2022-11-20T04:01:34;99674.00;;;2.04;84.12
68107;BME280;54892;47.488;19.026;2022-11-20T04:04:38;99670.25;;;1.93;83.56
68107;BME280;54892;47.488;19.026;2022-11-20T04:07:41;99651.03;;;1.94;84.07
68107;BME280;54892;47.488;19.026;2022-11-20T04:10:44;99664.25;;;1.92;84.11
68107;BME280;54892;47.488;19.026;2022-11-20T04:13:51;99661.84;;;1.97;83.72
68107;BME280;54892;47.488;19.026;2022-11-20T04:16:54;99662.47;;;1.93;83.90
68107;BME280;54892;47.488;19.026;2022-11-20T04:19:58;99644.25;;;1.93;83.78
68107;BME280;54892;47.488;19.026;2022-11-20T04:23:01;99631.78;;;1.95;83.24
68107;BME280;54892;47.488;19.026;2022-11-20T04:26:05;99627.03;;;1.92;83.33
68107;BME280;54892;47.488;19.026;2022-11-20T04:29:11;99626.59;;;1.95;83.35
68107;BME280;54892;47.488;19.026;2022-11-20T04:32:15;99633.00;;;1.92;83.46
68107;BME280;54892;47.488;19.026;2022-11-20T04:35:18;99638.56;;;2.03;83.17
68107;BME280;54892;47.488;19.026;2022-11-20T04:38:21;99637.00;;;2.02;83.61
68107;BME280;54892;47.488;19.026;2022-11-20T04:41:27;99633.38;;;1.96;83.27
68107;BME280;54892;47.488;19.026;2022-11-20T04:44:31;99635.44;;;1.94;83.00
68107;BME280;54892;47.488;19.026;2022-11-20T04:47:35;99630.22;;;1.87;83.25
68107;BME280;54892;47.488;19.026;2022-11-20T04:50:39;99627.81;;;1.92;83.62
68107;BME280;54892;47.488;19.026;2022-11-20T04:53:43;99621.78;;;1.98;83.70
68107;BME280;54892;47.488;19.026;2022-11-20T04:56:47;99603.97;;;1.95;83.79
68107;BME280;54892;47.488;19.026;2022-11-20T04:59:53;99602.97;;;1.96;84.28
68107;BME280;54892;47.488;19.026;2022-11-20T05:02:56;99606.16;;;1.98;83.95
68107;BME280;54892;47.488;19.026;2022-11-20T05:06:00;99604.63;;;1.84;84.49
68107;BME280;54892;47.488;19.026;2022-11-20T05:09:03;99606.22;;;1.85;84.95
68107;BME280;54892;47.488;19.026;2022-11-20T05:12:07;99621.00;;;1.91;84.80
68107;BME280;54892;47.488;19.026;2022-11-20T05:15:12;99623.97;;;2.02;84.52
68107;BME280;54892;47.488;19.026;2022-11-20T05:18:16;99618.94;;;2.07;84.43
68107;BME280;54892;47.488;19.026;2022-11-20T05:21:19;99624.12;;;2.07;84.31
68107;BME280;54892;47.488;19.026;2022-11-20T05:24:22;99615.72;;;2.05;84.40
68107;BME280;54892;47.488;19.026;2022-11-20T05:27:25;99603.72;;;2.04;84.42
68107;BME280;54892;47.488;19.026;2022-11-20T05:30:30;99599.31;;;2.04;84.29
68107;BME280;54892;47.488;19.026;2022-11-20T05:33:34;99598.50;;;2.04;84.07
68107;BME280;54892;47.488;19.026;2022-11-20T05:36:38;99591.25;;;2.12;83.54
68107;BME280;54892;47.488;19.026;2022-11-20T05:39:41;99581.69;;;2.06;83.59
68107;BME280;54892;47.488;19.026;2022-11-20T05:42:44;99589.50;;;2.06;83.47
68107;BME280;54892;47.488;19.026;2022-11-20T05:45:53;99588.50;;;2.07;83.62
68107;BME280;54892;47.488;19.026;2022-11-20T05:48:57;99597.28;;;2.13;83.49
68107;BME280;54892;47.488;19.026;2022-11-20T05:52:00;99603.13;;;2.08;83.45
68107;BME280;54892;47.488;19.026;2022-11-20T05:55:03;99598.06;;;2.13;83.30
68107;BME280;54892;47.488;19.026;2022-11-20T05:58:07;99607.69;;;2.13;83.17
68107;BME280;54892;47.488;19.026;2022-11-20T06:01:16;99616.47;;;2.19;82.99
68107;BME280;54892;47.488;19.026;2022-11-20T06:04:19;99619.03;;;2.25;82.19
68107;BME280;54892;47.488;19.026;2022-11-20T06:07:22;99615.00;;;2.30;81.37
68107;BME280;54892;47.488;19.026;2022-11-20T06:10:25;99612.41;;;2.30;81.25
68107;BME280;54892;47.488;19.026;2022-11-20T06:13:28;99622.19;;;2.34;81.03
68107;BME280;54892;47.488;19.026;2022-11-20T06:16:33;99633.41;;;2.35;81.03
68107;BME280;54892;47.488;19.026;2022-11-20T06:19:37;99618.94;;;2.39;81.23
68107;BME280;54892;47.488;19.026;2022-11-20T06:22:40;99613.09;;;2.43;80.44
68107;BME280;54892;47.488;19.026;2022-11-20T06:25:43;99615.94;;;2.42;80.60
68107;BME280;54892;47.488;19.026;2022-11-20T06:28:46;99608.75;;;2.37;80.32
68107;BME280;54892;47.488;19.026;2022-11-20T06:31:51;99609.91;;;2.41;80.39
68107;BME280;54892;47.488;19.026;2022-11-20T06:34:53;99615.53;;;2.45;79.98
68107;BME280;54892;47.488;19.026;2022-11-20T06:37:57;99633.50;;;2.53;79.85
68107;BME280;54892;47.488;19.026;2022-11-20T06:41:00;99638.28;;;2.56;79.16
68107;BME280;54892;47.488;19.026;2022-11-20T06:44:04;99649.87;;;2.61;78.82
68107;BME280;54892;47.488;19.026;2022-11-20T06:47:08;99653.44;;;2.66;78.86
68107;BME280;54892;47.488;19.026;2022-11-20T06:53:15;99650.59;;;3.44;85.81
68107;BME280;54892;47.488;19.026;2022-11-20T06:56:18;99659.84;;;7.42;95.89
68107;BME280;54892;47.488;19.026;2022-11-20T06:59:21;99643.75;;;8.55;84.14
68107;BME280;54892;47.488;19.026;2022-11-20T07:02:26;99636.22;;;8.64;79.25
68107;BME280;54892;47.488;19.026;2022-11-20T07:05:32;99639.97;;;7.29;65.51
68107;BME280;54892;47.488;19.026;2022-11-20T07:08:36;99634.66;;;5.69;67.73
68107;BME280;54892;47.488;19.026;2022-11-20T07:11:39;99629.69;;;4.84;71.09
68107;BME280;54892;47.488;19.026;2022-11-20T07:14:42;99641.06;;;4.36;72.95
68107;BME280;54892;47.488;19.026;2022-11-20T07:17:47;99648.13;;;4.05;74.16
68107;BME280;54892;47.488;19.026;2022-11-20T07:20:50;99647.62;;;3.77;75.92
68107;BME280;54892;47.488;19.026;2022-11-20T07:23:53;99658.72;;;3.73;77.44
68107;BME280;54892;47.488;19.026;2022-11-20T07:26:56;99663.88;;;3.61;78.06
68107;BME280;54892;47.488;19.026;2022-11-20T07:30:00;99657.34;;;3.52;79.00
68107;BME280;54892;47.488;19.026;2022-11-20T07:33:04;99657.19;;;3.46;79.61
68107;BME280;54892;47.488;19.026;2022-11-20T07:36:08;99662.06;;;3.43;80.45
68107;BME280;54892;47.488;19.026;2022-11-20T07:39:11;99670.53;;;3.38;79.99
68107;BME280;54892;47.488;19.026;2022-11-20T07:42:14;99665.31;;;3.38;80.57
68107;BME280;54892;47.488;19.026;2022-11-20T07:45:17;99675.09;;;3.43;80.79
68107;BME280;54892;47.488;19.026;2022-11-20T07:48:22;99672.78;;;3.34;81.22
68107;BME280;54892;47.488;19.026;2022-11-20T07:51:24;99666.59;;;3.29;82.68
68107;BME280;54892;47.488;19.026;2022-11-20T07:54:28;99679.56;;;3.35;82.49
68107;BME280;54892;47.488;19.026;2022-11-20T07:57:32;99670.53;;;3.38;82.82
68107;BME280;54892;47.488;19.026;2022-11-20T08:00:35;99666.22;;;3.25;83.48
68107;BME280;54892;47.488;19.026;2022-11-20T08:03:39;99671.00;;;3.28;83.32
68107;BME280;54892;47.488;19.026;2022-11-20T08:06:42;99670.94;;;3.35;82.82
68107;BME280;54892;47.488;19.026;2022-11-20T08:09:46;99654.44;;;3.41;82.58
68107;BME280;54892;47.488;19.026;2022-11-20T08:12:51;99650.25;;;3.40;82.56
68107;BME280;54892;47.488;19.026;2022-11-20T08:16:12;99648.78;;;3.44;82.43
68107;BME280;54892;47.488;19.026;2022-11-20T08:19:17;99649.94;;;3.48;83.21
68107;BME280;54892;47.488;19.026;2022-11-20T08:22:21;99655.53;;;3.52;83.10
68107;BME280;54892;47.488;19.026;2022-11-20T08:25:25;99660.31;;;3.55;83.44
68107;BME280;54892;47.488;19.026;2022-11-20T08:28:28;99648.38;;;3.66;83.89
68107;BME280;54892;47.488;19.026;2022-11-20T08:31:32;99643.28;;;3.53;86.05
68107;BME280;54892;47.488;19.026;2022-11-20T08:34:36;99649.16;;;3.66;86.07
68107;BME280;54892;47.488;19.026;2022-11-20T08:37:39;99641.78;;;3.63;85.77
68107;BME280;54892;47.488;19.026;2022-11-20T08:40:43;99650.37;;;3.64;85.77
68107;BME280;54892;47.488;19.026;2022-11-20T08:44:07;99654.88;;;3.75;85.97
68107;BME280;54892;47.488;19.026;2022-11-20T08:47:10;99660.16;;;3.69;85.29
68107;BME280;54892;47.488;19.026;2022-11-20T08:50:15;99663.59;;;3.69;85.26
68107;BME280;54892;47.488;19.026;2022-11-20T08:53:18;99666.91;;;3.76;85.27
68107;BME280;54892;47.488;19.026;2022-11-20T08:56:22;99660.31;;;3.92;83.93
68107;BME280;54892;47.488;19.026;2022-11-20T08:59:25;99675.25;;;3.85;85.14
68107;BME280;54892;47.488;19.026;2022-11-20T09:02:44;99672.06;;;3.83;84.62
68107;BME280;54892;47.488;19.026;2022-11-20T09:05:49;99676.72;;;3.81;84.56
68107;BME280;54892;47.488;19.026;2022-11-20T09:08:52;99685.03;;;3.90;84.37
68107;BME280;54892;47.488;19.026;2022-11-20T09:11:56;99686.97;;;4.13;84.25
68107;BME280;54892;47.488;19.026;2022-11-20T09:14:59;99692.28;;;4.06;83.19
68107;BME280;54892;47.488;19.026;2022-11-20T09:18:04;99693.75;;;4.02;83.28
68107;BME280;54892;47.488;19.026;2022-11-20T09:21:11;99683.38;;;3.77;85.06
68107;BME280;54892;47.488;19.026;2022-11-20T09:24:15;99695.50;;;3.71;86.18
68107;BME280;54892;47.488;19.026;2022-11-20T09:27:18;99698.75;;;3.85;85.73
68107;BME280;54892;47.488;19.026;2022-11-20T09:30:24;99684.75;;;3.98;85.71
68107;BME280;54892;47.488;19.026;2022-11-20T09:33:27;99684.75;;;3.98;85.63
68107;BME280;54892;47.488;19.026;2022-11-20T09:36:32;99681.63;;;4.08;85.30
68107;BME280;54892;47.488;19.026;2022-11-20T09:39:35;99681.56;;;3.96;86.10
68107;BME280;54892;47.488;19.026;2022-11-20T09:42:43;99682.28;;;4.03;86.60
68107;BME280;54892;47.488;19.026;2022-11-20T09:45:57;99683.72;;;4.18;85.99
68107;BME280;54892;47.488;19.026;2022-11-20T09:49:16;99673.72;;;4.15;86.25
68107;BME280;54892;47.488;19.026;2022-11-20T09:52:34;99666.41;;;4.35;85.92
68107;BME280;54892;47.488;19.026;2022-11-20T09:55:40;99674.16;;;4.11;86.34
68107;BME280;54892;47.488;19.026;2022-11-20T09:58:45;99676.00;;;4.23;86.14
68107;BME280;54892;47.488;19.026;2022-11-20T10:01:49;99668.72;;;4.44;85.83
68107;BME280;54892;47.488;19.026;2022-11-20T10:04:57;99660.44;;;4.47;86.51
68107;BME280;54892;47.488;19.026;2022-11-20T10:08:10;99660.22;;;4.60;85.30
68107;BME280;54892;47.488;19.026;2022-11-20T10:11:23;99656.81;;;4.60;83.17
68107;BME280;54892;47.488;19.026;2022-11-20T10:14:37;99651.13;;;4.63;84.62
68107;BME280;54892;47.488;19.026;2022-11-20T10:17:55;99639.94;;;4.74;83.57
68107;BME280;54892;47.488;19.026;2022-11-20T10:21:08;99636.28;;;4.75;83.03
68107;BME280;54892;47.488;19.026;2022-11-20T10:24:37;99629.81;;;4.78;83.87
68107;BME280;54892;47.488;19.026;2022-11-20T10:28:08;99621.19;;;4.89;83.58
68107;BME280;54892;47.488;19.026;2022-11-20T10:31:23;99617.56;;;5.02;83.02
68107;BME280;54892;47.488;19.026;2022-11-20T10:34:33;99617.19;;;5.10;82.37
68107;BME280;54892;47.488;19.026;2022-11-20T10:37:41;99622.75;;;5.14;82.73
68107;BME280;54892;47.488;19.026;2022-11-20T10:40:49;99614.81;;;5.09;82.35
68107;BME280;54892;47.488;19.026;2022-11-20T10:44:01;99620.25;;;5.31;82.42
68107;BME280;54892;47.488;19.026;2022-11-20T10:47:12;99616.12;;;5.47;81.67
68107;BME280;54892;47.488;19.026;2022-11-20T10:50:20;99611.72;;;5.24;81.61
68107;BME280;54892;47.488;19.026;2022-11-20T10:53:38;99606.59;;;5.41;81.71
68107;BME280;54892;47.488;19.026;2022-11-20T10:56:51;99611.03;;;5.40;82.02
68107;BME280;54892;47.488;19.026;2022-11-20T11:00:02;99619.81;;;5.34;81.78
68107;BME280;54892;47.488;19.026;2022-11-20T11:03:20;99624.94;;;5.41;81.21
68107;BME280;54892;47.488;19.026;2022-11-20T11:06:29;99628.06;;;5.55;81.66
68107;BME280;54892;47.488;19.026;2022-11-20T11:09:39;99636.03;;;5.60;81.17
68107;BME280;54892;47.488;19.026;2022-11-20T11:12:47;99641.97;;;5.67;81.06
68107;BME280;54892;47.488;19.026;2022-11-20T11:15:52;99642.03;;;5.72;81.39
68107;BME280;54892;47.488;19.026;2022-11-20T11:19:03;99638.41;;;5.61;81.77
68107;BME280;54892;47.488;19.026;2022-11-20T11:22:11;99642.97;;;5.66;81.88
68107;BME280;54892;47.488;19.026;2022-11-20T11:25:22;99638.97;;;5.63;82.35
68107;BME280;54892;47.488;19.026;2022-11-20T11:28:28;99646.81;;;5.87;80.98
68107;BME280;54892;47.488;19.026;2022-11-20T11:31:32;99644.88;;;5.83;80.45
68107;BME280;54892;47.488;19.026;2022-11-20T11:34:37;99645.66;;;5.83;80.82
68107;BME280;54892;47.488;19.026;2022-11-20T11:37:40;99637.81;;;5.83;81.36
68107;BME280;54892;47.488;19.026;2022-11-20T11:40:44;99638.56;;;5.95;81.91
68107;BME280;54892;47.488;19.026;2022-11-20T11:43:55;99637.66;;;6.02;81.97
68107;BME280;54892;47.488;19.026;2022-11-20T11:47:22;99632.84;;;6.11;82.16
68107;BME280;54892;47.488;19.026;2022-11-20T11:50:27;99621.91;;;6.14;81.54
68107;BME280;54892;47.488;19.026;2022-11-20T11:53:32;99623.78;;;6.30;80.44
68107;BME280;54892;47.488;19.026;2022-11-20T11:56:37;99610.66;;;6.30;80.48
68107;BME280;54892;47.488;19.026;2022-11-20T11:59:57;99599.13;;;6.31;80.80
68107;BME280;54892;47.488;19.026;2022-11-20T12:03:09;99593.00;;;6.25;79.62
68107;BME280;54892;47.488;19.026;2022-11-20T12:06:18;99600.41;;;6.29;78.44
68107;BME280;54892;47.488;19.026;2022-11-20T12:09:24;99600.81;;;6.37;77.51
68107;BME280;54892;47.488;19.026;2022-11-20T12:12:36;99607.25;;;6.30;76.32
68107;BME280;54892;47.488;19.026;2022-11-20T12:15:44;99614.47;;;6.22;76.43
68107;BME280;54892;47.488;19.026;2022-11-20T12:18:50;99614.53;;;6.28;76.42
68107;BME280;54892;47.488;19.026;2022-11-20T12:21:57;99611.44;;;6.31;76.89
68107;BME280;54892;47.488;19.026;2022-11-20T12:25:07;99612.66;;;6.40;77.24
68107;BME280;54892;47.488;19.026;2022-11-20T12:28:34;99604.41;;;6.48;76.87
68107;BME280;54892;47.488;19.026;2022-11-20T12:31:53;99590.56;;;6.36;76.21
68107;BME280;54892;47.488;19.026;2022-11-20T12:35:14;99582.31;;;6.27;76.01
68107;BME280;54892;47.488;19.026;2022-11-20T12:38:43;99580.00;;;6.31;75.82
68107;BME280;54892;47.488;19.026;2022-11-20T12:42:12;99584.06;;;6.21;75.83
68107;BME280;54892;47.488;19.026;2022-11-20T12:46:17;99595.56;;;6.20;76.63
68107;BME280;54892;47.488;19.026;2022-11-20T12:49:30;99595.56;;;6.20;76.58
68107;BME280;54892;47.488;19.026;2022-11-20T12:52:42;99610.72;;;6.18;76.08
68107;BME280;54892;47.488;19.026;2022-11-20T12:55:55;99613.41;;;6.23;76.35
68107;BME280;54892;47.488;19.026;2022-11-20T12:59:13;99610.09;;;6.28;76.16
68107;BME280;54892;47.488;19.026;2022-11-20T13:02:25;99612.78;;;6.33;76.31
68107;BME280;54892;47.488;19.026;2022-11-20T13:05:37;99612.13;;;6.38;76.49
68107;BME280;54892;47.488;19.026;2022-11-20T13:08:50;99602.16;;;6.40;76.83
68107;BME280;54892;47.488;19.026;2022-11-20T13:12:02;99613.94;;;6.54;75.79
68107;BME280;54892;47.488;19.026;2022-11-20T13:15:14;99611.41;;;6.43;75.14
68107;BME280;54892;47.488;19.026;2022-11-20T13:18:22;99613.31;;;6.47;75.96
68107;BME280;54892;47.488;19.026;2022-11-20T13:21:37;99605.03;;;6.38;75.44
68107;BME280;54892;47.488;19.026;2022-11-20T13:24:50;99610.59;;;6.42;75.55
68107;BME280;54892;47.488;19.026;2022-11-20T13:27:55;99606.94;;;6.26;74.94
68107;BME280;54892;47.488;19.026;2022-11-20T13:30:58;99601.69;;;6.26;75.83
68107;BME280;54892;47.488;19.026;2022-11-20T13:34:03;99590.22;;;6.15;76.00
68107;BME280;54892;47.488;19.026;2022-11-20T13:37:28;99588.53;;;6.09;76.08
68107;BME280;54892;47.488;19.026;2022-11-20T13:40:32;99583.53;;;6.07;75.99
68107;BME280;54892;47.488;19.026;2022-11-20T13:43:39;99587.34;;;6.00;76.71
68107;BME280;54892;47.488;19.026;2022-11-20T13:46:45;99576.66;;;5.89;76.79
68107;BME280;54892;47.488;19.026;2022-11-20T13:49:49;99572.91;;;5.85;77.03
68107;BME280;54892;47.488;19.026;2022-11-20T13:53:01;99576.94;;;5.76;77.36
68107;BME280;54892;47.488;19.026;2022-11-20T13:56:21;99578.28;;;5.78;77.57
68107;BME280;54892;47.488;19.026;2022-11-20T13:59:37;99564.84;;;5.75;77.48
68107;BME280;54892;47.488;19.026;2022-11-20T14:02:42;99581.13;;;5.77;77.60
68107;BME280;54892;47.488;19.026;2022-11-20T14:05:50;99576.56;;;5.72;78.10
68107;BME280;54892;47.488;19.026;2022-11-20T14:08:55;99568.72;;;5.72;78.27
68107;BME280;54892;47.488;19.026;2022-11-20T14:11:59;99569.31;;;5.62;78.56
68107;BME280;54892;47.488;19.026;2022-11-20T14:15:04;99575.25;;;5.58;78.41
68107;BME280;54892;47.488;19.026;2022-11-20T14:18:12;99570.16;;;5.51;78.80
68107;BME280;54892;47.488;19.026;2022-11-20T14:21:26;99574.19;;;5.42;79.10
68107;BME280;54892;47.488;19.026;2022-11-20T14:24:31;99569.84;;;5.36;79.74
68107;BME280;54892;47.488;19.026;2022-11-20T14:27:36;99573.59;;;5.40;79.61
68107;BME280;54892;47.488;19.026;2022-11-20T14:30:43;99572.78;;;5.39;79.83
68107;BME280;54892;47.488;19.026;2022-11-20T14:33:47;99577.25;;;5.39;79.80
68107;BME280;54892;47.488;19.026;2022-11-20T14:36:55;99578.03;;;5.39;79.84
68107;BME280;54892;47.488;19.026;2022-11-20T14:40:02;99588.28;;;5.41;79.61
68107;BME280;54892;47.488;19.026;2022-11-20T14:43:17;99600.09;;;5.43;79.72
68107;BME280;54892;47.488;19.026;2022-11-20T14:46:21;99602.41;;;5.40;79.67
68107;BME280;54892;47.488;19.026;2022-11-20T14:49:26;99603.66;;;5.37;79.96
68107;BME280;54892;47.488;19.026;2022-11-20T14:52:31;99603.09;;;5.35;79.63
68107;BME280;54892;47.488;19.026;2022-11-20T14:55:37;99601.81;;;5.38;79.52
68107;BME280;54892;47.488;19.026;2022-11-20T14:58:42;99606.28;;;5.37;80.02
68107;BME280;54892;47.488;19.026;2022-11-20T15:01:54;99601.72;;;5.32;80.25
68107;BME280;54892;47.488;19.026;2022-11-20T15:05:00;99605.91;;;5.33;80.32
68107;BME280;54892;47.488;19.026;2022-11-20T15:08:06;99603.88;;;5.36;80.37
68107;BME280;54892;47.488;19.026;2022-11-20T15:11:18;99601.72;;;5.32;80.30
68107;BME280;54892;47.488;19.026;2022-11-20T15:14:23;99615.72;;;5.26;79.92
68107;BME280;54892;47.488;19.026;2022-11-20T15:17:28;99618.09;;;5.28;79.95
68107;BME280;54892;47.488;19.026;2022-11-20T15:20:32;99617.31;;;5.27;80.20
68107;BME280;54892;47.488;19.026;2022-11-20T15:23:36;99607.50;;;5.23;80.57
68107;BME280;54892;47.488;19.026;2022-11-20T15:26:41;99613.91;;;5.15;81.11
68107;BME280;54892;47.488;19.026;2022-11-20T15:29:45;99613.22;;;5.08;81.10
68107;BME280;54892;47.488;19.026;2022-11-20T15:32:49;99613.09;;;4.91;81.73
68107;BME280;54892;47.488;19.026;2022-11-20T15:35:59;99615.94;;;4.77;82.42
68107;BME280;54892;47.488;19.026;2022-11-20T15:39:03;99616.59;;;4.72;82.72
68107;BME280;54892;47.488;19.026;2022-11-20T15:42:12;99610.13;;;6.45;96.81
68107;BME280;54892;47.488;19.026;2022-11-20T15:45:16;99614.06;;;8.97;82.92
68107;BME280;54892;47.488;19.026;2022-11-20T15:48:26;99621.63;;;10.00;78.25
68107;BME280;54892;47.488;19.026;2022-11-20T15:51:34;99629.13;;;10.76;78.51
68107;BME280;54892;47.488;19.026;2022-11-20T15:54:38;99631.41;;;11.34;78.84
68107;BME280;54892;47.488;19.026;2022-11-20T15:57:43;99614.84;;;11.68;73.18
68107;BME280;54892;47.488;19.026;2022-11-20T16:00:46;99614.38;;;12.16;76.48
68107;BME280;54892;47.488;19.026;2022-11-20T16:03:50;99616.50;;;12.49;75.75
68107;BME280;54892;47.488;19.026;2022-11-20T16:06:54;99619.31;;;12.63;76.08
68107;BME280;54892;47.488;19.026;2022-11-20T16:09:58;99618.75;;;11.86;78.06
68107;BME280;54892;47.488;19.026;2022-11-20T16:13:05;99622.41;;;11.30;79.96
68107;BME280;54892;47.488;19.026;2022-11-20T16:16:34;99620.31;;;11.32;77.88
68107;BME280;54892;47.488;19.026;2022-11-20T16:19:40;99609.94;;;12.41;76.13
68107;BME280;54892;47.488;19.026;2022-11-20T16:22:44;99610.34;;;11.03;60.91
68107;BME280;54892;47.488;19.026;2022-11-20T16:25:49;99605.19;;;9.09;65.53
68107;BME280;54892;47.488;19.026;2022-11-20T16:28:53;99602.56;;;8.11;68.84
68107;BME280;54892;47.488;19.026;2022-11-20T16:31:58;99607.94;;;7.50;72.28